createdAt,value
2023-02-19T00:32:07.375Z,9.4
2023-02-19T00:52:11.494Z,9.5
2023-02-19T01:02:13.594Z,9.5
2023-02-19T01:12:16.109Z,9.5
2023-02-19T01:22:18.238Z,9.5
2023-02-19T01:32:20.916Z,9.5
2023-02-19T01:52:26.057Z,9.2
2023-02-19T02:02:28.066Z,9.1
2023-02-19T02:12:30.571Z,9
2023-02-19T02:32:34.950Z,8.9
2023-02-19T02:42:37.364Z,8.8
2023-02-19T02:52:39.499Z,8.7
2023-02-19T03:02:41.578Z,8.7
2023-02-19T03:12:43.743Z,8.7
2023-02-19T03:22:46.406Z,8.7
2023-02-19T03:32:48.579Z,8.7
2023-02-19T03:42:51.066Z,8.7
2023-02-19T03:52:53.045Z,8.7
2023-02-19T04:02:54.929Z,8.7
2023-02-19T04:12:56.687Z,8.6
2023-02-19T04:22:59.203Z,8.5
2023-02-19T04:33:01.038Z,8.6
2023-02-19T04:43:03.000Z,8.5
2023-02-19T04:53:05.311Z,8.5
2023-02-19T05:03:07.045Z,8.5
2023-02-19T05:13:09.320Z,8.5
2023-02-19T05:23:11.399Z,8.5
2023-02-19T05:33:13.260Z,8.5
2023-02-19T05:43:15.154Z,8.5
2023-02-19T05:53:17.238Z,8.5
2023-02-19T06:03:19.012Z,8.4
2023-02-19T06:13:21.512Z,8.4
2023-02-19T06:23:23.575Z,8.2
2023-02-19T06:33:26.099Z,8.2
2023-02-19T06:53:29.948Z,8.1
2023-02-19T07:03:31.879Z,8.1
2023-02-19T07:13:34.336Z,8.1
2023-02-19T07:23:36.498Z,8.2
2023-02-19T07:33:38.720Z,8.3
2023-02-19T07:43:40.964Z,8.2
2023-02-19T07:53:42.938Z,8.1
2023-02-19T08:03:44.924Z,8.1
2023-02-19T08:23:51.119Z,8.1
2023-02-19T08:33:51.550Z,8.2
2023-02-19T08:43:54.237Z,8.3
2023-02-19T08:53:56.297Z,8.3
2023-02-19T09:03:58.481Z,8.2
2023-02-19T09:14:01.097Z,8.2
2023-02-19T09:24:03.511Z,8.4
2023-02-19T09:44:07.823Z,8.4
2023-02-19T09:54:10.328Z,8.4
2023-02-19T10:04:12.724Z,8.3
2023-02-19T10:14:14.499Z,8.5
2023-02-19T10:24:17.145Z,8.4
2023-02-19T10:34:19.215Z,8.5
2023-02-19T10:44:21.700Z,6.4
2023-02-19T10:54:23.486Z,6.3
2023-02-19T11:04:25.395Z,6.3
2023-02-19T11:14:27.879Z,6.2
2023-02-19T11:24:29.602Z,6.3
2023-02-19T11:34:31.467Z,6.3
2023-02-19T11:44:33.829Z,6.2
2023-02-19T11:54:35.825Z,6.3
2023-02-19T12:04:38.141Z,6.3
2023-02-19T12:14:40.150Z,6.4
2023-02-19T12:24:42.346Z,6.3
2023-02-19T12:34:44.788Z,6.6
2023-02-19T12:44:47.017Z,6.6
2023-02-19T12:54:49.106Z,6.6
2023-02-19T13:04:51.733Z,6.7
2023-02-19T13:24:55.507Z,6.6
2023-02-19T13:45:00.042Z,6.7
2023-02-19T13:55:02.125Z,6.7
2023-02-19T14:05:04.541Z,6.7
2023-02-19T14:15:06.313Z,6.7
2023-02-19T14:25:08.448Z,6.7
2023-02-19T14:45:12.618Z,6.9
2023-02-19T14:55:15.074Z,6.9
2023-02-19T15:05:17.234Z,6.8
2023-02-19T15:15:19.005Z,6.7
2023-02-19T15:16:46.402Z,6.7
2023-02-19T15:25:29.356Z,6.8
2023-02-19T15:35:31.829Z,6.8
2023-02-19T15:45:34.437Z,6.8
2023-02-19T15:55:36.509Z,7.1
2023-02-19T16:05:38.205Z,7.2
2023-02-19T16:15:40.010Z,7.2
2023-02-19T16:25:42.391Z,7.3
2023-02-19T16:35:44.178Z,7.2
2023-02-19T16:45:46.219Z,7.3
2023-02-19T16:55:48.014Z,7.3
2023-02-19T17:05:50.100Z,7.2
2023-02-19T17:25:54.557Z,7
2023-02-19T17:35:57.215Z,7
2023-02-19T17:45:58.911Z,6.9
2023-02-19T17:56:00.828Z,6.8
2023-02-19T18:16:05.396Z,6.1
2023-02-19T18:26:07.040Z,6
2023-02-19T18:36:09.397Z,6
2023-02-19T18:46:11.531Z,5.8
2023-02-19T18:56:13.789Z,5.8
2023-02-19T19:06:15.832Z,5.6
2023-02-19T19:16:17.819Z,5.4
2023-02-19T19:26:20.354Z,5.4
2023-02-19T19:36:22.932Z,5.4
2023-02-19T19:46:25.170Z,5.4
2023-02-19T19:56:27.655Z,5.4
2023-02-19T20:06:29.736Z,5.4
2023-02-19T20:16:31.643Z,5.4
2023-02-19T20:26:33.863Z,5.5
2023-02-19T20:36:36.214Z,5.4
2023-02-19T20:46:38.074Z,5.4
2023-02-19T21:06:42.518Z,5.3
2023-02-19T21:16:44.615Z,5.3
2023-02-19T21:26:47.003Z,5.2
2023-02-19T21:36:48.978Z,5.3
2023-02-19T21:46:51.197Z,5.4
2023-02-19T21:56:52.899Z,5.3
2023-02-19T22:06:55.548Z,5.4
2023-02-19T22:16:57.589Z,5.4
2023-02-19T22:27:00.010Z,5.4
2023-02-19T22:37:02.322Z,5.5
2023-02-19T22:47:04.858Z,5.4
2023-02-19T22:57:07.443Z,5.3
2023-02-19T23:07:10.043Z,5.1
2023-02-19T23:17:12.203Z,5
2023-02-19T23:37:16.351Z,4.9
2023-02-19T23:47:18.064Z,4.9
2023-02-19T23:57:20.492Z,5
